Time;durP1;ratioP1;P1;durP2;ratioP2;P2;SDS_P1;SDS_P2;PMS_P1;PMS_P2;Temp;Humidity;BMP_temperature;BMP_pressure;BME280_temperature;BME280_humidity;BME280_pressure;Samples;Min_cycle;Max_cycle;Signal;HPM_P1;HPM_P2
2022/02/21 14:06:45;;;;;;;;;2.00;2.00;;;;;14.23;34.62;100788.34;5358662;23;9537;-71
2022/02/21 14:09:41;;;;;;;;;11.67;11.67;;;;;14.26;34.74;100785.69;4943730;29;8944;-71
2022/02/21 14:12:37;;;;;;;;;9.00;9.00;;;;;14.13;34.59;100776.56;4947853;28;9338;-71
2022/02/21 14:15:33;;;;;;;;;9.00;9.00;;;;;14.12;34.56;100777.75;4974205;28;9251;-72
2022/02/21 14:18:29;;;;;;;;;6.00;6.00;;;;;12.90;36.54;100777.81;4967725;28;9261;-72
2022/02/21 14:21:24;;;;;;;;;11.00;10.75;;;;;12.48;37.36;100771.53;4926003;28;9243;-72
2022/02/21 14:24:21;;;;;;;;;6.00;6.00;;;;;12.73;36.94;100786.31;4960386;28;9610;-71
2022/02/21 14:27:16;;;;;;;;;5.00;3.75;;;;;12.83;36.57;100788.66;4961103;28;9614;-72
2022/02/21 14:30:12;;;;;;;;;8.00;8.00;;;;;13.01;36.53;100789.25;4974048;28;9561;-74
2022/02/21 14:33:08;;;;;;;;;4.25;4.25;;;;;13.32;35.87;100780.41;4946211;28;9698;-72
2022/02/21 14:36:04;;;;;;;;;5.67;5.67;;;;;13.31;35.73;100782.38;4952607;28;9578;-70
2022/02/21 14:39:00;;;;;;;;;4.50;4.50;;;;;13.19;36.04;100775.97;4934768;28;9515;-71
2022/02/21 14:41:55;;;;;;;;;5.00;5.00;;;;;13.04;36.17;100788.59;4953715;28;9500;-70
2022/02/21 14:44:51;;;;;;;;;4.33;4.33;;;;;13.20;35.85;100777.63;4936698;29;9409;-71
2022/02/21 14:47:46;;;;;;;;;4.00;4.00;;;;;13.11;36.31;100776.88;4935759;29;9396;-71
2022/02/21 14:50:42;;;;;;;;;3.00;3.00;;;;;12.84;36.72;100770.84;4935454;29;9677;-71
2022/02/21 14:53:38;;;;;;;;;3.75;3.75;;;;;12.55;37.46;100773.78;4935908;29;10326;-71
2022/02/21 14:56:34;;;;;;;;;5.50;5.50;;;;;12.42;37.69;100765.44;4935257;29;9653;-71
2022/02/21 14:59:29;;;;;;;;;6.25;6.25;;;;;12.33;37.90;100759.13;4943883;28;9547;-71
2022/02/21 15:01:58;;;;;;;;;7.00;7.00;;;;;12.13;38.54;100765.53;4940014;28;9802;-71
2022/02/21 15:04:53;;;;;;;;;11.50;10.50;;;;;12.07;39.05;100759.38;4950823;28;9763;-71
2022/02/21 15:07:49;;;;;;;;;12.00;10.50;;;;;11.83;39.63;100748.16;4954165;28;10789;-72
2022/02/21 15:10:17;;;;;;;;;8.75;8.75;;;;;11.63;39.95;100744.19;4955130;28;9977;-72
2022/02/21 15:12:45;;;;;;;;;17.25;16.25;;;;;11.74;40.11;100756.50;4941531;29;9869;-72
2022/02/21 15:15:13;;;;;;;;;4.75;4.75;;;;;11.73;40.37;100754.91;4916764;29;10135;-72
2022/02/21 15:17:40;;;;;;;;;15.75;11.50;;;;;11.59;40.84;100749.59;4932736;29;10065;-71
2022/02/21 15:20:36;;;;;;;;;14.50;14.50;;;;;11.34;41.34;100758.88;4921971;29;10270;-72
2022/02/21 15:23:32;;;;;;;;;18.75;17.00;;;;;11.22;41.92;100751.28;4906334;29;11056;-71
2022/02/21 15:26:29;;;;;;;;;24.50;23.00;;;;;10.99;42.83;100747.16;4916384;29;10530;-71
2022/02/21 15:29:25;;;;;;;;;27.50;24.25;;;;;10.82;43.39;100748.06;4926270;28;10750;-70
2022/02/21 15:31:53;;;;;;;;;33.00;21.25;;;;;10.71;43.82;100744.81;4923769;29;10915;-72
2022/02/21 15:34:25;;;;;;;;;23.50;23.50;;;;;10.55;43.86;100750.06;4917767;29;10801;-73
2022/02/21 15:36:54;;;;;;;;;24.25;21.00;;;;;10.62;43.66;100746.81;4886251;29;10751;-72
2022/02/21 15:39:51;;;;;;;;;15.00;15.00;;;;;10.65;43.71;100754.44;4916490;29;10975;-74
2022/02/21 15:42:48;;;;;;;;;19.75;19.75;;;;;10.66;43.55;100745.03;4926551;29;10568;-73
2022/02/21 15:45:43;;;;;;;;;19.00;19.00;;;;;10.36;44.79;100749.63;4935324;29;10664;-74
2022/02/21 15:48:39;;;;;;;;;19.25;18.25;;;;;10.12;45.67;100754.81;4935446;29;10777;-74
2022/02/21 15:51:35;;;;;;;;;39.75;34.50;;;;;10.19;46.21;100753.19;4934114;29;10849;-74
2022/02/21 15:54:30;;;;;;;;;30.25;28.00;;;;;9.92;48.24;100750.78;4921811;29;12039;-74
2022/02/21 15:57:26;;;;;;;;;34.75;32.75;;;;;9.74;49.26;100748.00;4916745;29;11941;-74
2022/02/21 15:59:53;;;;;;;;;31.25;29.75;;;;;9.66;49.82;100745.22;4947157;29;11233;-73
2022/02/21 16:02:49;;;;;;;;;28.75;28.75;;;;;9.50;50.57;100744.06;4936993;29;11199;-74
2022/02/21 16:05:45;;;;;;;;;30.00;29.75;;;;;9.42;51.01;100734.63;4915628;29;11578;-73
2022/02/21 16:08:40;;;;;;;;;31.25;28.75;;;;;9.28;51.38;100742.22;4951957;28;11500;-73
2022/02/21 16:11:36;;;;;;;;;39.50;35.50;;;;;9.13;52.26;100727.75;4933148;29;11685;-73
2022/02/21 16:14:31;;;;;;;;;36.50;30.75;;;;;9.12;52.07;100734.41;4938334;29;11584;-74
2022/02/21 16:17:13;;;;;;;;;23.50;21.00;;;;;9.18;52.00;100741.38;4934610;29;11524;-73
2022/02/21 16:20:09;;;;;;;;;21.25;20.00;;;;;9.28;51.42;100736.69;4948242;29;11542;-73
2022/02/21 16:23:05;;;;;;;;;14.00;14.00;;;;;9.23;51.57;100734.91;4941405;28;11176;-73
2022/02/21 16:26:00;;;;;;;;;17.00;17.00;;;;;9.24;51.48;100744.00;4939235;29;11164;-72
2022/02/21 16:28:56;;;;;;;;;15.75;15.75;;;;;9.06;52.14;100738.44;4953356;29;11196;-74
2022/02/21 16:31:54;;;;;;;;;20.25;20.25;;;;;9.07;51.92;100737.31;4942039;28;11177;-72
2022/02/21 16:34:50;;;;;;;;;22.50;22.00;;;;;8.84;52.92;100744.03;4956066;28;11483;-72
2022/02/21 16:37:46;;;;;;;;;21.75;21.00;;;;;8.76;53.12;100739.31;4957018;28;12319;-73
2022/02/21 16:40:22;;;;;;;;;37.00;29.00;;;;;8.68;53.50;100742.81;4957887;28;11516;-72
2022/02/21 16:43:18;;;;;;;;;27.75;27.75;;;;;8.67;53.97;100741.22;4944034;28;11514;-72
2022/02/21 16:46:19;;;;;;;;;33.50;31.25;;;;;8.64;53.90;100742.63;4937540;29;11523;-72
2022/02/21 16:49:15;;;;;;;;;25.25;24.50;;;;;8.55;54.18;100741.78;4937113;28;11614;-71
2022/02/21 16:52:10;;;;;;;;;28.75;27.25;;;;;8.55;54.41;100741.78;4937341;29;12403;-71
2022/02/21 16:55:06;;;;;;;;;26.50;25.25;;;;;8.39;54.85;100752.38;4938375;29;11530;-71
2022/02/21 16:58:02;;;;;;;;;22.50;22.50;;;;;8.34;55.13;100749.72;4924358;29;12397;-71
2022/02/21 17:00:58;;;;;;;;;22.50;20.75;;;;;8.30;55.68;100752.31;4936972;29;11645;-71
2022/02/21 17:03:53;;;;;;;;;26.00;26.00;;;;;8.27;56.01;100752.09;4937145;29;11565;-71
2022/02/21 17:06:49;;;;;;;;;29.00;29.00;;;;;8.22;56.09;100755.81;4948014;28;11521;-71
2022/02/21 17:09:45;;;;;;;;;24.25;24.25;;;;;8.20;56.25;100757.22;4955253;28;12310;-72
2022/02/21 17:12:40;;;;;;;;;31.25;31.25;;;;;8.24;56.55;100763.75;4953019;29;11609;-72
2022/02/21 17:15:36;;;;;;;;;26.00;25.50;;;;;8.18;56.73;100768.56;4938365;29;11743;-72
2022/02/21 17:18:32;;;;;;;;;21.00;16.00;;;;;8.10;56.83;100769.31;4937470;29;11716;-72
2022/02/21 17:21:27;;;;;;;;;19.25;15.00;;;;;8.08;57.04;100763.31;4946204;28;11527;-73
2022/02/21 17:24:23;;;;;;;;;24.75;22.75;;;;;7.96;57.78;100769.38;4942748;29;11586;-72
2022/02/21 17:27:19;;;;;;;;;22.25;20.25;;;;;7.89;57.84;100755.22;4937428;29;11566;-73
2022/02/21 17:29:51;;;;;;;;;327.00;245.25;;;;;7.84;58.77;100754.53;4940396;28;11530;-71
2022/02/21 17:32:47;;;;;;;;;50.00;41.25;;;;;7.70;59.03;100763.66;4957013;28;8891;-73
2022/02/21 17:35:15;;;;;;;;;28.50;27.00;;;;;7.69;59.11;100755.69;4957878;28;11593;-72
2022/02/21 17:37:43;;;;;;;;;20.50;20.25;;;;;7.74;59.24;100756.41;4953519;28;11643;-73
2022/02/21 17:40:19;;;;;;;;;24.00;21.75;;;;;7.79;58.66;100755.47;4957792;28;11504;-72
2022/02/21 17:42:47;;;;;;;;;11.00;11.00;;;;;7.75;58.94;100752.53;4954280;28;11583;-72
2022/02/21 17:45:15;;;;;;;;;16.00;16.00;;;;;7.79;58.90;100753.53;4954402;28;12246;-71
2022/02/21 17:47:51;;;;;;;;;20.75;20.00;;;;;7.78;58.99;100760.16;4953334;28;11534;-72
2022/02/21 17:50:38;;;;;;;;;16.75;16.75;;;;;7.74;58.66;100767.41;4934788;28;11686;-71
2022/02/21 17:53:05;;;;;;;;;15.75;15.50;;;;;7.68;59.01;100762.34;4938513;28;11514;-72
2022/02/21 17:55:33;;;;;;;;;18.75;18.75;;;;;7.66;59.15;100761.81;4956152;28;11533;-71
2022/02/21 17:58:01;;;;;;;;;24.50;23.75;;;;;7.57;59.53;100756.22;4956444;28;11602;-72
2022/02/21 18:00:29;;;;;;;;;20.25;20.25;;;;;7.56;59.78;100768.34;4954938;28;11532;-72
2022/02/21 18:02:57;;;;;;;;;21.50;21.00;;;;;7.59;59.83;100761.41;4940565;28;11620;-73
2022/02/21 18:05:28;;;;;;;;;14.75;11.00;;;;;7.51;60.84;100751.94;4956001;28;11591;-73
2022/02/21 18:07:57;;;;;;;;;17.00;16.25;;;;;7.52;60.78;100761.84;4931573;29;11508;-72
2022/02/21 18:10:25;;;;;;;;;13.75;13.50;;;;;7.48;60.51;100758.09;4936098;29;12355;-72
2022/02/21 18:12:53;;;;;;;;;11.75;11.75;;;;;7.47;60.45;100757.25;4913373;29;11527;-73
2022/02/21 18:15:21;;;;;;;;;12.50;11.75;;;;;7.49;61.28;100755.00;4917656;29;11510;-72
2022/02/21 18:17:49;;;;;;;;;15.00;15.00;;;;;7.40;62.11;100767.06;4917976;29;11498;-72
2022/02/21 18:20:17;;;;;;;;;12.50;12.50;;;;;7.38;63.46;100750.06;4900932;29;11478;-72
2022/02/21 18:22:45;;;;;;;;;17.00;16.75;;;;;7.27;64.34;100757.69;4923006;29;11455;-72
2022/02/21 18:25:17;;;;;;;;;15.00;15.00;;;;;7.20;65.89;100755.34;4936414;29;11492;-72
2022/02/21 18:27:45;;;;;;;;;17.25;15.50;;;;;7.27;65.73;100762.38;4937003;29;11480;-72
2022/02/21 18:30:13;;;;;;;;;16.00;16.00;;;;;7.18;66.94;100765.84;4935634;29;11520;-73
2022/02/21 18:32:41;;;;;;;;;18.00;15.75;;;;;7.25;66.93;100763.50;4932256;29;11358;-73
2022/02/21 18:35:10;;;;;;;;;21.75;21.75;;;;;7.17;67.97;100757.91;4928295;29;12251;-73
2022/02/21 18:37:38;;;;;;;;;14.75;14.75;;;;;7.07;68.82;100766.38;4935846;29;11509;-72
2022/02/21 18:40:13;;;;;;;;;15.75;15.75;;;;;6.95;69.27;100769.63;4901022;29;12350;-72
2022/02/21 18:42:42;;;;;;;;;21.25;21.25;;;;;6.81;70.10;100763.28;4934198;29;11627;-72
2022/02/21 18:45:14;;;;;;;;;24.25;21.00;;;;;6.77;71.03;100765.84;4936112;29;11528;-72
2022/02/21 18:47:43;;;;;;;;;24.00;20.00;;;;;6.74;71.12;100765.63;4934648;29;11634;-72
2022/02/21 18:50:15;;;;;;;;;20.00;19.25;;;;;6.80;71.00;100772.66;4934798;29;11639;-72
2022/02/21 18:52:43;;;;;;;;;18.50;18.50;;;;;6.57;72.27;100771.69;4930434;28;11551;-72
2022/02/21 18:55:30;;;;;;;;;16.50;16.50;;;;;6.62;72.72;100758.69;4933010;28;11512;-72
2022/02/21 18:58:27;;;;;;;;;20.75;18.00;;;;;6.66;72.92;100776.19;4921058;29;11554;-72
2022/02/21 19:01:13;;;;;;;;;20.50;20.50;;;;;6.57;73.53;100771.69;4918241;29;11709;-72
2022/02/21 19:03:44;;;;;;;;;16.75;16.75;;;;;6.49;74.38;100767.72;4933608;29;11563;-73
2022/02/21 19:06:40;;;;;;;;;10.25;10.25;;;;;6.47;75.19;100777.38;4942168;28;11598;-73
2022/02/21 19:09:36;;;;;;;;;27.75;26.25;;;;;6.19;77.00;100762.72;4948535;28;11568;-72
2022/02/21 19:12:04;;;;;;;;;22.00;20.00;;;;;6.36;76.62;100772.06;4917581;29;11793;-75
2022/02/21 19:15:00;;;;;;;;;19.75;18.50;;;;;6.29;77.21;100771.63;4954124;28;12353;-74
2022/02/21 19:17:32;;;;;;;;;18.00;16.25;;;;;6.27;78.26;100776.59;4927348;28;11591;-74
2022/02/21 19:20:01;;;;;;;;;18.75;17.25;;;;;6.24;78.33;100784.63;4938978;28;11666;-73
2022/02/21 19:22:38;;;;;;;;;17.00;17.00;;;;;6.14;78.52;100782.88;4954239;28;11547;-74
2022/02/21 19:25:34;;;;;;;;;17.25;17.25;;;;;6.17;78.77;100782.25;4936179;28;11565;-73
2022/02/21 19:28:32;;;;;;;;;16.00;14.50;;;;;6.16;79.14;100785.31;4953652;28;11554;-73
2022/02/21 19:31:28;;;;;;;;;13.00;12.25;;;;;6.13;79.67;100782.06;4953288;28;12421;-73
2022/02/21 19:34:23;;;;;;;;;18.75;18.75;;;;;6.16;79.75;100777.06;4939774;28;11560;-71
2022/02/21 19:36:52;;;;;;;;;12.50;11.25;;;;;6.23;79.28;100780.25;4935469;29;11619;-74
2022/02/21 19:39:47;;;;;;;;;17.50;17.50;;;;;6.06;79.82;100792.59;4935909;29;11624;-73
2022/02/21 19:42:15;;;;;;;;;14.50;14.50;;;;;6.02;80.54;100786.06;4963735;28;11591;-73
2022/02/21 19:45:12;;;;;;;;;17.25;17.25;;;;;6.05;80.44;100790.13;4938603;28;11616;-74
2022/02/21 19:47:40;;;;;;;;;18.75;18.75;;;;;6.08;80.36;100795.03;4935635;29;11643;-73
2022/02/21 19:50:08;;;;;;;;;18.00;18.00;;;;;6.04;80.40;100783.81;4954714;29;11582;-74
2022/02/21 19:52:57;;;;;;;;;16.25;16.25;;;;;6.08;80.61;100781.31;4954277;28;11631;-75
2022/02/21 19:55:30;;;;;;;;;20.25;19.25;;;;;5.94;81.44;100783.16;4952513;28;11682;-73
2022/02/21 19:58:26;;;;;;;;;17.00;17.00;;;;;5.92;81.45;100782.66;4972787;28;11548;-74
2022/02/21 20:01:23;;;;;;;;;14.75;14.25;;;;;5.77;82.17;100789.97;4957944;28;11632;-74
2022/02/21 20:04:18;;;;;;;;;15.00;15.00;;;;;5.89;81.80;100794.19;4942575;28;12322;-74
2022/02/21 20:06:48;;;;;;;;;19.25;19.25;;;;;5.86;81.54;100798.34;4975757;28;11613;-73
2022/02/21 20:09:44;;;;;;;;;16.00;16.00;;;;;5.79;82.17;100793.22;4963932;28;11580;-74
2022/02/21 20:12:39;;;;;;;;;18.00;17.75;;;;;5.80;81.93;100794.03;4976794;28;11659;-74
2022/02/21 20:15:35;;;;;;;;;2.50;2.50;;;;;5.63;82.54;100786.31;4938036;29;11716;-73
2022/02/21 20:18:31;;;;;;;;;13.50;13.50;;;;;5.78;81.79;100788.03;4937496;29;11766;-74
2022/02/21 20:21:26;;;;;;;;;16.75;16.75;;;;;5.80;81.73;100791.28;4970266;28;11614;-74
2022/02/21 20:24:23;;;;;;;;;16.00;16.00;;;;;5.76;81.71;100788.34;4955372;28;12400;-74
2022/02/21 20:27:12;;;;;;;;;11.00;11.00;;;;;5.73;81.76;100788.09;4957943;28;12423;-74
2022/02/21 20:30:08;;;;;;;;;15.50;14.25;;;;;5.76;81.83;100787.53;4956992;28;12309;-74
2022/02/21 20:33:05;;;;;;;;;14.50;13.75;;;;;5.81;81.33;100785.50;4951910;29;11601;-73
2022/02/21 20:35:53;;;;;;;;;17.25;17.00;;;;;5.73;82.13;100788.91;4938439;29;11608;-74
2022/02/21 20:38:21;;;;;;;;;17.00;17.00;;;;;5.77;82.14;100787.22;4921932;29;12347;-74
2022/02/21 20:41:12;;;;;;;;;11.25;11.25;;;;;5.76;81.92;100793.03;4955072;28;11620;-74
2022/02/21 20:43:40;;;;;;;;;12.00;12.00;;;;;5.80;81.54;100780.31;4949758;29;11651;-74
2022/02/21 20:46:08;;;;;;;;;15.00;15.00;;;;;5.72;81.93;100778.25;4922532;29;11575;-73
2022/02/21 20:48:38;;;;;;;;;10.75;10.25;;;;;5.70;81.54;100775.81;4921518;29;11592;-74
2022/02/21 20:51:34;;;;;;;;;16.00;16.00;;;;;5.61;82.04;100763.88;4937470;29;11561;-74
2022/02/21 20:54:29;;;;;;;;;10.00;10.00;;;;;5.48;82.64;100765.41;4925740;29;11683;-73
2022/02/21 20:57:25;;;;;;;;;15.75;14.25;;;;;5.58;81.92;100770.72;4961128;28;11544;-73
2022/02/21 21:00:21;;;;;;;;;9.50;9.25;;;;;5.51;82.46;100761.25;4975699;28;11669;-73
2022/02/21 21:03:16;;;;;;;;;9.00;9.00;;;;;5.52;82.03;100760.13;4975462;28;11506;-73
2022/02/21 21:06:12;;;;;;;;;9.00;9.00;;;;;5.47;81.83;100754.72;4957506;28;12359;-73
2022/02/21 21:09:08;;;;;;;;;9.75;9.75;;;;;5.48;81.64;100751.69;4962694;28;12381;-72
2022/02/21 21:12:04;;;;;;;;;10.75;10.75;;;;;5.43;81.84;100753.66;4963306;28;11537;-73
2022/02/21 21:15:00;;;;;;;;;8.25;8.25;;;;;5.50;81.54;100754.13;4952122;28;11562;-73
2022/02/21 21:17:29;;;;;;;;;11.00;11.00;;;;;5.37;81.70;100750.19;4920966;29;11561;-73
2022/02/21 21:20:24;;;;;;;;;12.50;11.25;;;;;5.37;81.66;100760.31;4931876;28;11605;-73
2022/02/21 21:23:20;;;;;;;;;9.00;9.00;;;;;5.45;81.61;100759.69;4948863;28;11603;-73
2022/02/21 21:26:16;;;;;;;;;9.50;9.50;;;;;5.41;81.28;100750.41;4950022;29;11607;-73
2022/02/21 21:29:12;;;;;;;;;8.75;8.50;;;;;5.38;81.75;100743.59;4937101;29;11549;-73
2022/02/21 21:32:08;;;;;;;;;11.50;11.50;;;;;5.40;81.45;100748.78;4924091;29;11589;-73
2022/02/21 21:34:35;;;;;;;;;11.25;11.25;;;;;5.32;81.83;100746.69;4942621;28;11567;-73
2022/02/21 21:37:31;;;;;;;;;9.25;9.25;;;;;5.35;81.58;100746.91;4955778;28;11659;-73
2022/02/21 21:39:59;;;;;;;;;12.25;11.75;;;;;5.30;81.85;100747.00;4956819;28;11551;-73
2022/02/21 21:42:26;;;;;;;;;17.00;17.00;;;;;5.35;81.48;100748.84;4939847;28;11600;-73
2022/02/21 21:45:22;;;;;;;;;12.00;12.00;;;;;5.30;81.63;100745.06;4940267;29;11657;-73
2022/02/21 21:48:17;;;;;;;;;9.50;9.50;;;;;5.29;81.79;100726.16;4937235;29;11621;-73
2022/02/21 21:51:14;;;;;;;;;8.75;8.00;;;;;5.25;81.77;100730.59;4942653;28;11578;-73
2022/02/21 21:54:10;;;;;;;;;17.50;15.25;;;;;5.23;81.88;100717.19;4948214;28;11704;-73
2022/02/21 21:57:05;;;;;;;;;13.25;13.25;;;;;5.18;82.00;100728.22;4936424;29;11575;-73
2022/02/21 22:00:06;;;;;;;;;13.50;13.50;;;;;5.14;82.25;100732.66;4936494;29;11560;-73
2022/02/21 22:03:01;;;;;;;;;10.50;10.50;;;;;5.16;82.12;100730.44;4924036;29;11578;-74
2022/02/21 22:05:57;;;;;;;;;10.00;10.00;;;;;5.15;82.26;100725.25;4953856;28;11589;-73
2022/02/21 22:08:55;;;;;;;;;14.25;14.25;;;;;5.07;82.56;100726.72;4955538;28;11589;-73
2022/02/21 22:11:50;;;;;;;;;16.50;16.50;;;;;4.98;82.75;100722.97;4942255;28;12430;-74
2022/02/21 22:14:46;;;;;;;;;16.50;16.50;;;;;4.94;83.33;100713.72;4953394;28;11809;-73
2022/02/21 22:17:14;;;;;;;;;16.00;13.25;;;;;5.06;82.51;100705.06;4939297;28;11766;-74
2022/02/21 22:20:10;;;;;;;;;16.25;16.25;;;;;4.91;83.15;100704.16;4955143;28;11574;-73
2022/02/21 22:23:06;;;;;;;;;13.50;13.50;;;;;4.92;83.39;100702.25;4954949;28;11587;-73
2022/02/21 22:26:01;;;;;;;;;14.75;12.50;;;;;4.90;83.21;100698.97;4940048;28;11561;-73
2022/02/21 22:28:57;;;;;;;;;13.00;13.00;;;;;4.98;82.90;100701.06;4935114;29;12287;-74
2022/02/21 22:31:52;;;;;;;;;11.00;9.25;;;;;4.94;82.68;100695.34;4935616;29;11574;-74
2022/02/21 22:34:48;;;;;;;;;15.25;14.00;;;;;4.95;83.11;100702.47;4944660;29;11705;-74
2022/02/21 22:37:46;;;;;;;;;18.00;18.00;;;;;4.80;83.51;100693.59;4935601;29;11579;-74
2022/02/21 22:40:41;;;;;;;;;13.25;13.25;;;;;4.82;83.78;100699.59;4935527;29;11582;-74
2022/02/21 22:43:37;;;;;;;;;13.00;13.00;;;;;4.81;83.52;100697.97;4939382;28;11556;-73
2022/02/21 22:46:18;;;;;;;;;10.00;10.00;;;;;4.82;83.86;100700.41;4955433;28;11583;-73
2022/02/21 22:49:14;;;;;;;;;18.25;16.75;;;;;4.70;84.38;100697.28;4954209;28;11531;-74
2022/02/21 22:52:09;;;;;;;;;11.50;9.50;;;;;4.70;84.29;100697.28;4954647;28;11583;-74
2022/02/21 22:55:05;;;;;;;;;16.75;16.00;;;;;4.71;84.57;100698.91;4942601;28;11742;-74
2022/02/21 22:58:01;;;;;;;;;12.00;12.00;;;;;4.63;85.24;100685.88;4954428;28;11644;-73
2022/02/21 23:01:10;;;;;;;;;12.75;12.75;;;;;4.56;85.59;100688.94;4953605;28;11677;-73
2022/02/21 23:10:34;;;;;;;;;9.50;9.50;;;;;4.66;86.00;100698.97;4973343;28;11633;-73
2022/02/21 23:13:31;;;;;;;;;15.75;15.75;;;;;4.63;86.29;100694.91;4973639;28;11556;-74
2022/02/21 23:16:26;;;;;;;;;12.50;12.50;;;;;4.67;86.07;100692.38;4942523;28;11558;-73
2022/02/21 23:19:22;;;;;;;;;13.00;13.00;;;;;4.62;86.49;100693.28;4941473;28;11545;-73
2022/02/21 23:22:18;;;;;;;;;12.50;12.50;;;;;4.62;86.88;100687.78;4934722;29;11560;-73
2022/02/21 23:25:14;;;;;;;;;15.00;15.00;;;;;4.62;86.52;100684.25;4928271;28;11621;-73
2022/02/21 23:28:09;;;;;;;;;12.25;12.25;;;;;4.54;87.32;100668.44;4934386;29;11641;-73
2022/02/21 23:31:05;;;;;;;;;11.50;11.50;;;;;4.64;87.25;100671.88;4935654;29;11688;-73
2022/02/21 23:34:00;;;;;;;;;8.00;8.00;;;;;4.58;87.65;100661.25;4935820;29;12460;-73
2022/02/21 23:36:56;;;;;;;;;9.50;9.50;;;;;4.67;87.41;100670.47;4933360;29;11604;-73
2022/02/21 23:39:37;;;;;;;;;12.00;11.50;;;;;4.65;87.71;100672.69;4936396;29;11654;-73
2022/02/21 23:42:33;;;;;;;;;12.25;12.25;;;;;4.61;87.49;100672.47;4941688;29;11648;-74
2022/02/21 23:45:29;;;;;;;;;9.75;9.75;;;;;4.61;87.99;100664.25;4944543;28;11587;-73
2022/02/21 23:48:24;;;;;;;;;13.25;13.25;;;;;4.49;88.64;100663.00;4947587;28;11577;-73
2022/02/21 23:51:20;;;;;;;;;12.25;12.25;;;;;4.46;88.85;100658.94;4960340;28;11546;-73
2022/02/21 23:54:15;;;;;;;;;10.50;9.75;;;;;4.33;89.73;100663.19;4960311;28;11566;-73
2022/02/21 23:57:11;;;;;;;;;9.25;9.25;;;;;4.41;89.87;100659.00;4947421;28;11555;-73
